Time;durP1;ratioP1;P1;durP2;ratioP2;P2;SDS_P1;SDS_P2;PMS_P1;PMS_P2;Temp;Humidity;BMP_temperature;BMP_pressure;BME280_temperature;BME280_humidity;BME280_pressure;Samples;Min_cycle;Max_cycle;Signal;HPM_P1;HPM_P2
2022/03/02 00:01:40;;;;;;;14.75;9.02;;;1.10;98.40;;;;;;5012173;28;20045;-67
2022/03/02 00:04:44;;;;;;;14.88;7.72;;;0.90;99.90;;;;;;5012502;28;20053;-66
2022/03/02 00:07:48;;;;;;;17.63;8.60;;;0.80;99.90;;;;;;5012033;28;20507;-66
2022/03/02 00:10:52;;;;;;;15.38;8.35;;;0.70;99.90;;;;;;5011507;28;20041;-67
2022/03/02 00:13:58;;;;;;;14.55;7.93;;;0.60;99.90;;;;;;5012094;28;20105;-67
2022/03/02 00:17:02;;;;;;;15.88;8.63;;;0.60;99.90;;;;;;5012211;28;20057;-67
2022/03/02 00:20:06;;;;;;;15.93;8.95;;;0.50;99.90;;;;;;5011930;28;20128;-66
2022/03/02 00:23:10;;;;;;;17.48;8.43;;;0.40;99.90;;;;;;5011769;28;20495;-67
2022/03/02 00:26:15;;;;;;;25.58;11.48;;;0.40;99.90;;;;;;5011895;28;20045;-67
2022/03/02 00:29:19;;;;;;;18.60;9.40;;;0.50;99.90;;;;;;5011473;28;20053;-67
2022/03/02 00:32:23;;;;;;;15.55;8.35;;;0.50;99.90;;;;;;5011126;28;20396;-66
2022/03/02 00:35:27;;;;;;;14.30;7.82;;;0.50;99.90;;;;;;5011674;28;20507;-67
2022/03/02 00:38:31;;;;;;;16.95;8.00;;;0.80;99.90;;;;;;5011181;28;20041;-67
2022/03/02 00:41:36;;;;;;;17.58;9.15;;;1.00;99.90;;;;;;5011064;28;20068;-67
2022/03/02 00:44:40;;;;;;;13.43;8.00;;;0.90;99.90;;;;;;5011384;28;20381;-67
2022/03/02 00:47:44;;;;;;;14.93;8.75;;;0.80;99.90;;;;;;5011028;28;20409;-67
2022/03/02 00:50:48;;;;;;;15.88;8.20;;;0.70;99.90;;;;;;5010930;28;20056;-67
2022/03/02 00:53:54;;;;;;;17.20;9.05;;;0.70;99.90;;;;;;5011210;28;20045;-67
2022/03/02 00:56:58;;;;;;;14.68;8.43;;;0.70;99.90;;;;;;5011328;28;20065;-67
2022/03/02 01:00:05;;;;;;;14.48;7.63;;;0.70;99.90;;;;;;5011297;28;20045;-67
2022/03/02 01:03:09;;;;;;;17.23;9.23;;;0.80;99.90;;;;;;5011232;28;20065;-67
2022/03/02 01:06:13;;;;;;;15.40;8.05;;;0.70;99.90;;;;;;5011253;28;20045;-67
2022/03/02 01:09:17;;;;;;;13.05;7.18;;;0.70;99.90;;;;;;5010594;28;20049;-67
2022/03/02 01:12:22;;;;;;;15.10;7.43;;;0.60;99.90;;;;;;5010635;28;20053;-67
2022/03/02 01:15:26;;;;;;;16.02;7.95;;;0.50;99.90;;;;;;5010976;28;20057;-67
2022/03/02 01:18:30;;;;;;;16.25;10.02;;;0.50;99.90;;;;;;5010747;28;20041;-67
2022/03/02 01:21:34;;;;;;;16.33;8.45;;;0.50;99.90;;;;;;5010760;28;20417;-67
2022/03/02 01:24:38;;;;;;;16.27;8.55;;;0.50;99.90;;;;;;5010937;28;20049;-67
2022/03/02 01:27:42;;;;;;;18.77;8.95;;;0.60;99.90;;;;;;5010883;28;20048;-67
2022/03/02 01:30:46;;;;;;;14.65;8.65;;;0.50;99.90;;;;;;5010664;28;20135;-67
2022/03/02 01:33:51;;;;;;;16.83;9.10;;;0.50;99.90;;;;;;5010751;28;20052;-67
2022/03/02 01:36:55;;;;;;;14.52;8.07;;;0.40;99.90;;;;;;5010655;28;20041;-66
2022/03/02 01:39:59;;;;;;;14.75;8.98;;;0.30;99.90;;;;;;5010711;28;20040;-66
2022/03/02 01:43:03;;;;;;;16.15;8.00;;;0.20;99.90;;;;;;5010406;28;20392;-66
2022/03/02 01:46:07;;;;;;;12.40;6.80;;;0.20;99.90;;;;;;5010370;28;20056;-66
2022/03/02 01:49:12;;;;;;;15.32;8.77;;;0.10;99.90;;;;;;5009700;28;20041;-66
2022/03/02 01:52:16;;;;;;;22.95;11.25;;;0.00;99.90;;;;;;5010120;28;20049;-67
2022/03/02 01:55:19;;;;;;;16.02;9.35;;;0.00;99.90;;;;;;5010276;28;20045;-67
2022/03/02 01:58:25;;;;;;;17.27;9.70;;;-0.10;99.90;;;;;;5010270;28;20049;-67
2022/03/02 02:01:30;;;;;;;19.13;10.65;;;-0.10;99.90;;;;;;5010031;28;20073;-67
2022/03/02 02:04:34;;;;;;;17.17;9.23;;;-0.10;99.90;;;;;;5010346;28;20045;-67
2022/03/02 02:07:39;;;;;;;18.75;10.07;;;-0.10;99.90;;;;;;5010093;28;20045;-69
2022/03/02 02:10:43;;;;;;;18.20;9.68;;;-0.10;99.90;;;;;;5009438;28;20409;-69
2022/03/02 02:13:48;;;;;;;20.92;10.25;;;-0.20;99.90;;;;;;5010422;28;20037;-69
2022/03/02 02:16:54;;;;;;;19.52;10.20;;;0.00;99.90;;;;;;5010175;28;20045;-69
2022/03/02 02:19:58;;;;;;;22.00;10.30;;;0.10;99.90;;;;;;5009810;28;20041;-66
2022/03/02 02:23:02;;;;;;;18.42;10.15;;;0.10;99.90;;;;;;5010374;28;20053;-66
2022/03/02 02:26:07;;;;;;;20.65;9.38;;;0.20;99.90;;;;;;5010064;28;20504;-66
2022/03/02 02:29:12;;;;;;;19.77;9.75;;;0.20;99.90;;;;;;5009976;28;20044;-67
2022/03/02 02:32:16;;;;;;;20.13;9.68;;;0.20;99.90;;;;;;5009618;28;20056;-67
2022/03/02 02:35:21;;;;;;;16.58;9.32;;;0.40;99.90;;;;;;5008959;28;20049;-67
2022/03/02 02:38:25;;;;;;;16.38;9.48;;;0.40;99.90;;;;;;5020626;28;20421;-67
2022/03/02 02:41:30;;;;;;;18.48;10.63;;;0.40;99.90;;;;;;5009709;28;20057;-69
2022/03/02 02:44:35;;;;;;;23.38;10.88;;;0.10;99.90;;;;;;5020303;28;20052;-70
2022/03/02 02:47:39;;;;;;;16.98;10.07;;;-0.20;99.90;;;;;;5010223;28;20045;-67
2022/03/02 02:50:44;;;;;;;21.67;10.27;;;-0.40;99.90;;;;;;5009162;28;20045;-67
2022/03/02 02:53:48;;;;;;;21.55;11.55;;;-0.60;99.90;;;;;;5009818;28;20040;-67
2022/03/02 02:56:52;;;;;;;24.40;12.27;;;-0.80;99.90;;;;;;5009931;28;20045;-66
2022/03/02 02:59:56;;;;;;;23.45;11.52;;;-0.90;99.90;;;;;;5010652;28;20048;-67
2022/03/02 03:03:02;;;;;;;24.58;11.98;;;-0.90;99.90;;;;;;5013960;28;20057;-67
2022/03/02 03:06:07;;;;;;;20.48;11.02;;;-0.90;99.90;;;;;;5013990;28;20048;-67
2022/03/02 03:09:11;;;;;;;20.83;10.85;;;-0.90;99.90;;;;;;5013050;28;20064;-67
2022/03/02 03:12:15;;;;;;;19.98;10.77;;;-0.90;99.90;;;;;;5013015;28;20049;-67
2022/03/02 03:15:20;;;;;;;22.00;10.45;;;-0.90;99.90;;;;;;5013497;28;20045;-67
2022/03/02 03:18:24;;;;;;;20.55;10.55;;;-0.90;99.90;;;;;;5013550;28;20076;-67
2022/03/02 03:21:28;;;;;;;22.00;11.27;;;-0.80;99.90;;;;;;5012709;28;20049;-67
2022/03/02 03:24:34;;;;;;;20.92;10.45;;;-0.80;99.90;;;;;;5013433;28;20053;-67
2022/03/02 03:27:37;;;;;;;16.88;9.50;;;-0.70;99.90;;;;;;5013266;28;20389;-70
2022/03/02 03:30:41;;;;;;;17.67;8.88;;;-0.60;99.90;;;;;;5012646;28;20061;-67
2022/03/02 03:33:45;;;;;;;18.45;8.60;;;-0.50;99.90;;;;;;5013177;28;20044;-67
2022/03/02 03:36:52;;;;;;;19.25;10.25;;;-0.30;99.90;;;;;;5012988;28;20049;-67
2022/03/02 03:39:56;;;;;;;16.48;9.77;;;-0.40;99.90;;;;;;5012923;28;20056;-67
2022/03/02 03:43:00;;;;;;;18.67;10.10;;;-0.70;99.90;;;;;;5012801;28;20053;-68
2022/03/02 03:46:05;;;;;;;22.42;11.00;;;-0.70;99.90;;;;;;5012891;28;20057;-67
2022/03/02 03:49:09;;;;;;;24.55;10.57;;;-0.80;99.90;;;;;;5012452;28;20492;-67
2022/03/02 03:52:13;;;;;;;20.45;10.35;;;-0.70;99.90;;;;;;5012318;28;20041;-67
2022/03/02 03:55:19;;;;;;;16.77;10.27;;;-0.60;99.90;;;;;;5012329;28;20106;-68
2022/03/02 03:58:23;;;;;;;22.80;10.43;;;-0.70;99.90;;;;;;5012780;28;20121;-68
2022/03/02 04:01:27;;;;;;;20.45;10.15;;;-0.70;99.90;;;;;;5011982;28;20049;-67
2022/03/02 04:04:31;;;;;;;13.57;8.85;;;-0.70;99.90;;;;;;5023128;28;20057;-68
2022/03/02 04:07:36;;;;;;;15.75;8.80;;;-0.80;99.90;;;;;;5012454;28;20049;-68
2022/03/02 04:10:40;;;;;;;21.42;11.43;;;-0.70;99.90;;;;;;5011065;28;20064;-68
2022/03/02 04:13:44;;;;;;;21.30;10.63;;;-0.70;99.90;;;;;;5012115;28;20049;-67
2022/03/02 04:16:49;;;;;;;20.55;11.00;;;-0.70;99.90;;;;;;5012183;28;20727;-67
2022/03/02 04:19:53;;;;;;;21.05;10.82;;;-0.60;99.90;;;;;;5011742;28;20393;-67
2022/03/02 04:22:57;;;;;;;19.23;9.60;;;-0.50;99.90;;;;;;5011857;28;20044;-67
2022/03/02 04:26:01;;;;;;;17.30;10.05;;;-0.50;99.90;;;;;;5011997;28;20393;-68
2022/03/02 04:29:05;;;;;;;19.88;10.23;;;-0.60;99.90;;;;;;5011716;28;20065;-67
2022/03/02 04:32:09;;;;;;;19.05;10.20;;;-0.60;99.90;;;;;;5011491;28;20049;-67
2022/03/02 04:35:14;;;;;;;26.88;11.82;;;-0.70;99.90;;;;;;5012003;28;20384;-67
2022/03/02 04:38:18;;;;;;;19.83;10.85;;;-0.70;99.90;;;;;;5011827;28;20048;-68
2022/03/02 04:41:22;;;;;;;16.35;8.55;;;-0.80;99.90;;;;;;5011060;28;20041;-68
2022/03/02 04:44:26;;;;;;;16.73;9.35;;;-0.70;99.90;;;;;;5011594;28;20068;-68
2022/03/02 04:47:31;;;;;;;14.68;8.45;;;-0.70;99.90;;;;;;5011360;28;20053;-68
2022/03/02 04:50:35;;;;;;;24.13;10.60;;;-0.70;99.90;;;;;;5010811;28;20053;-68
2022/03/02 04:53:39;;;;;;;14.75;7.88;;;-0.70;99.90;;;;;;5011015;28;20048;-68
2022/03/02 04:56:44;;;;;;;15.02;9.07;;;-0.70;99.90;;;;;;5011346;28;20057;-68
2022/03/02 04:59:47;;;;;;;21.45;9.60;;;-0.70;99.90;;;;;;5011117;28;20520;-68
2022/03/02 05:02:52;;;;;;;22.88;10.57;;;-0.70;99.90;;;;;;5010866;28;20397;-68
2022/03/02 05:05:56;;;;;;;20.95;9.35;;;-0.60;99.90;;;;;;5011601;28;20064;-68
2022/03/02 05:09:00;;;;;;;18.60;9.75;;;-0.60;99.90;;;;;;5011192;28;20049;-68
2022/03/02 05:12:05;;;;;;;27.05;12.55;;;-0.60;99.90;;;;;;5010684;28;20049;-68
2022/03/02 05:15:10;;;;;;;28.50;14.32;;;-0.70;99.90;;;;;;5021390;28;20489;-68
2022/03/02 05:18:14;;;;;;;20.58;10.35;;;-0.90;99.90;;;;;;5011334;28;20056;-68
2022/03/02 05:21:18;;;;;;;13.82;8.60;;;-1.00;99.90;;;;;;5010572;28;20053;-68
2022/03/02 05:24:22;;;;;;;17.40;9.15;;;-1.20;99.90;;;;;;5010764;28;20053;-68
2022/03/02 05:27:26;;;;;;;18.70;9.82;;;-1.40;99.90;;;;;;5010891;28;20053;-68
2022/03/02 05:30:30;;;;;;;19.10;10.02;;;-1.50;99.90;;;;;;5010791;28;20057;-68
2022/03/02 05:33:34;;;;;;;18.60;9.82;;;-1.60;99.90;;;;;;5021269;28;20397;-68
2022/03/02 05:36:38;;;;;;;18.35;9.55;;;-1.60;99.90;;;;;;5010970;28;20056;-68
2022/03/02 05:39:43;;;;;;;16.20;8.93;;;-1.70;99.90;;;;;;5011015;28;20389;-68
2022/03/02 05:42:47;;;;;;;20.00;9.95;;;-1.70;99.90;;;;;;5010187;28;20049;-68
2022/03/02 05:45:51;;;;;;;18.10;10.18;;;-1.70;99.90;;;;;;5010941;28;20283;-68
2022/03/02 05:48:55;;;;;;;19.90;9.85;;;-1.70;99.90;;;;;;5010804;28;20056;-69
2022/03/02 05:51:59;;;;;;;15.63;9.38;;;-1.80;99.90;;;;;;5010147;28;20236;-68
2022/03/02 05:55:04;;;;;;;21.08;10.93;;;-1.80;99.90;;;;;;5011125;28;20041;-69
2022/03/02 05:58:08;;;;;;;24.95;10.68;;;-1.80;99.90;;;;;;5010681;28;20057;-68
2022/03/02 06:01:13;;;;;;;21.80;10.73;;;-1.70;99.90;;;;;;5010088;28;20344;-68
2022/03/02 06:04:17;;;;;;;21.52;10.88;;;-1.60;99.90;;;;;;5010515;28;20049;-68
2022/03/02 06:07:21;;;;;;;25.75;11.25;;;-1.50;99.90;;;;;;5010802;28;20053;-68
2022/03/02 06:10:26;;;;;;;17.58;9.80;;;-1.30;99.90;;;;;;5009720;28;20049;-67
2022/03/02 06:13:30;;;;;;;19.95;10.50;;;-1.20;99.90;;;;;;5010294;28;20496;-68
2022/03/02 06:16:34;;;;;;;23.88;10.20;;;-1.10;99.90;;;;;;5010132;28;20100;-68
2022/03/02 06:19:41;;;;;;;22.67;10.50;;;-1.10;99.90;;;;;;5010423;28;20073;-68
2022/03/02 06:22:46;;;;;;;22.80;10.75;;;-1.10;99.90;;;;;;5009297;28;20401;-68
2022/03/02 06:25:51;;;;;;;20.80;10.52;;;-0.90;99.90;;;;;;5010823;28;20057;-69
2022/03/02 06:28:55;;;;;;;21.80;11.38;;;-1.10;99.90;;;;;;5010584;28;20045;-71
2022/03/02 06:32:00;;;;;;;21.58;10.80;;;-1.10;99.90;;;;;;5009962;28;20052;-68
2022/03/02 06:35:06;;;;;;;22.63;12.30;;;-0.10;99.90;;;;;;5013492;28;20049;-69
2022/03/02 06:38:10;;;;;;;22.95;12.80;;;3.80;99.90;;;;;;5013742;28;20049;-70
2022/03/02 06:41:35;;;;;;;18.10;9.27;;;7.20;99.90;;;;;;5013450;28;20109;-69
2022/03/02 06:45:25;;;;;;;16.70;8.82;;;10.50;95.60;;;;;;5013876;28;20045;-69
2022/03/02 06:48:41;;;;;;;14.38;8.15;;;13.20;90.20;;;;;;4999765;28;20397;-69
2022/03/02 06:51:47;;;;;;;12.07;7.95;;;15.10;79.90;;;;;;5013077;28;20037;-69
2022/03/02 06:54:51;;;;;;;15.25;8.82;;;16.20;72.90;;;;;;5013844;28;20045;-70
2022/03/02 06:57:57;;;;;;;14.95;9.50;;;16.30;71.40;;;;;;5013417;28;20389;-69
2022/03/02 07:01:01;;;;;;;16.00;8.77;;;16.90;68.80;;;;;;5013057;28;20049;-69
2022/03/02 07:04:06;;;;;;;13.38;9.95;;;16.80;68.20;;;;;;5022805;28;20095;-69
2022/03/02 07:07:11;;;;;;;15.48;9.88;;;17.10;66.60;;;;;;5031259;28;20511;-69
2022/03/02 07:10:15;;;;;;;14.48;10.00;;;17.10;66.40;;;;;;5026921;28;20045;-70
2022/03/02 07:13:20;;;;;;;16.60;9.15;;;16.90;66.90;;;;;;5027640;28;20384;-70
2022/03/02 07:16:24;;;;;;;12.20;8.63;;;17.90;63.70;;;;;;5030662;28;20052;-70
2022/03/02 07:19:28;;;;;;;11.68;8.30;;;18.20;63.20;;;;;;5032085;28;20060;-70
2022/03/02 07:22:34;;;;;;;10.25;8.18;;;18.50;62.40;;;;;;5032021;28;20507;-70
2022/03/02 07:25:42;;;;;;;10.90;8.00;;;18.90;61.70;;;;;;5030016;28;20500;-69
2022/03/02 07:28:47;;;;;;;11.38;8.68;;;19.20;60.40;;;;;;5030793;28;20508;-70
2022/03/02 07:31:55;;;;;;;12.88;8.10;;;19.60;59.10;;;;;;5026475;28;20052;-70
2022/03/02 07:35:02;;;;;;;14.40;8.30;;;19.70;58.10;;;;;;5026839;28;20071;-69
2022/03/02 07:38:07;;;;;;;12.80;7.57;;;20.50;57.20;;;;;;5031367;28;20052;-70
2022/03/02 07:41:11;;;;;;;10.23;8.40;;;20.30;56.80;;;;;;5028619;28;20036;-70
2022/03/02 07:44:16;;;;;;;10.73;8.25;;;20.10;56.30;;;;;;5024528;28;20040;-70
2022/03/02 07:47:21;;;;;;;10.90;7.90;;;20.10;56.80;;;;;;5026554;28;20053;-70
2022/03/02 07:50:25;;;;;;;11.93;8.68;;;20.20;55.30;;;;;;5020961;28;20049;-70
2022/03/02 07:53:36;;;;;;;11.65;9.20;;;20.40;54.70;;;;;;5030368;28;20044;-69
2022/03/02 07:56:40;;;;;;;13.48;9.23;;;14.70;57.10;;;;;;5022474;28;20044;-69
2022/03/02 07:59:45;;;;;;;10.80;8.82;;;12.50;62.40;;;;;;5032100;28;20056;-68
2022/03/02 08:02:53;;;;;;;13.93;9.05;;;12.10;64.70;;;;;;5025808;28;20044;-69
2022/03/02 08:05:59;;;;;;;15.40;9.73;;;11.60;64.90;;;;;;5029200;28;20053;-69
2022/03/02 08:09:05;;;;;;;15.98;9.48;;;11.90;65.80;;;;;;5023157;28;20041;-69
2022/03/02 08:12:11;;;;;;;15.23;9.75;;;14.10;64.10;;;;;;5028475;28;20045;-69
2022/03/02 08:15:15;;;;;;;13.65;8.48;;;17.10;60.80;;;;;;5025178;28;20393;-70
2022/03/02 08:18:19;;;;;;;11.35;8.65;;;19.50;57.70;;;;;;5025176;28;20043;-70
2022/03/02 08:21:28;;;;;;;11.88;8.65;;;21.10;55.70;;;;;;5029266;28;20041;-70
2022/03/02 08:24:34;;;;;;;13.98;8.45;;;21.60;54.60;;;;;;5030952;28;20044;-69
2022/03/02 08:27:43;;;;;;;11.50;8.27;;;22.10;53.90;;;;;;5026683;28;20064;-69
2022/03/02 08:30:52;;;;;;;11.27;8.23;;;22.10;55.10;;;;;;5023278;28;20048;-70
2022/03/02 08:33:57;;;;;;;11.60;7.75;;;23.00;53.60;;;;;;5027098;28;20408;-70
2022/03/02 08:37:02;;;;;;;11.40;8.50;;;24.20;52.60;;;;;;5024894;28;20048;-70
2022/03/02 08:40:06;;;;;;;11.40;8.70;;;24.90;50.90;;;;;;5024591;28;20052;-67
2022/03/02 08:43:13;;;;;;;11.00;8.35;;;25.40;48.70;;;;;;5026192;28;20044;-67
2022/03/02 08:46:17;;;;;;;9.05;7.53;;;25.90;48.70;;;;;;5030893;28;20049;-67
2022/03/02 08:49:21;;;;;;;8.77;6.95;;;26.20;47.90;;;;;;5029249;28;20040;-67
2022/03/02 08:52:28;;;;;;;10.63;7.70;;;26.60;46.90;;;;;;5027387;28;20619;-67
2022/03/02 08:55:33;;;;;;;9.05;7.13;;;27.30;46.30;;;;;;5024540;28;20044;-67
2022/03/02 08:58:38;;;;;;;10.82;8.15;;;27.00;44.20;;;;;;5028211;28;20045;-67
2022/03/02 09:01:53;;;;;;;12.45;8.13;;;26.50;44.30;;;;;;5026788;28;20044;-67
2022/03/02 09:05:03;;;;;;;9.05;7.50;;;22.10;49.10;;;;;;5023682;28;20033;-69
2022/03/02 09:08:08;;;;;;;9.60;7.95;;;21.70;52.80;;;;;;5026754;28;20500;-69
2022/03/02 09:11:12;;;;;;;9.57;8.48;;;21.10;52.70;;;;;;5026414;28;20109;-69
2022/03/02 09:14:18;;;;;;;11.57;8.55;;;19.20;55.60;;;;;;5028922;28;20499;-69
2022/03/02 09:17:25;;;;;;;15.35;9.65;;;20.20;52.30;;;;;;5024503;28;20413;-69
2022/03/02 09:20:30;;;;;;;13.13;9.60;;;14.70;59.00;;;;;;5028985;28;20041;-69
2022/03/02 09:23:40;;;;;;;13.52;10.00;;;16.20;59.20;;;;;;5028656;28;20052;-69
2022/03/02 09:26:46;;;;;;;12.98;9.40;;;15.70;58.80;;;;;;5018240;28;20495;-69
2022/03/02 09:29:53;;;;;;;14.45;9.35;;;15.90;58.60;;;;;;5025237;28;20044;-69
2022/03/02 09:33:00;;;;;;;13.10;8.52;;;18.90;54.70;;;;;;5030418;28;20044;-69
2022/03/02 09:36:06;;;;;;;9.35;7.32;;;21.50;53.60;;;;;;5030100;28;20060;-69
2022/03/02 09:39:10;;;;;;;10.10;7.72;;;21.70;50.90;;;;;;5019984;28;20060;-69
2022/03/02 09:42:25;;;;;;;11.98;7.55;;;22.70;49.70;;;;;;5026265;28;20466;-69
2022/03/02 09:45:31;;;;;;;8.25;6.57;;;22.90;48.30;;;;;;5025301;28;20503;-69
2022/03/02 09:48:41;;;;;;;11.88;6.68;;;22.90;47.60;;;;;;5027527;28;20052;-70
2022/03/02 09:51:52;;;;;;;7.70;6.32;;;26.00;46.90;;;;;;5028778;28;20049;-69
2022/03/02 09:54:58;;;;;;;7.95;5.90;;;27.40;45.30;;;;;;5027702;28;20037;-69
2022/03/02 09:58:03;;;;;;;6.43;5.47;;;28.70;43.80;;;;;;5026354;28;20048;-69
2022/03/02 10:01:14;;;;;;;6.57;5.70;;;29.20;43.30;;;;;;5029184;28;20045;-69
2022/03/02 10:04:22;;;;;;;10.25;7.10;;;28.70;41.90;;;;;;5027066;28;20036;-69
2022/03/02 10:07:29;;;;;;;12.98;6.90;;;28.70;40.90;;;;;;5026746;28;20052;-68
2022/03/02 10:10:39;;;;;;;8.57;6.45;;;28.50;41.80;;;;;;5027680;28;20044;-69
2022/03/02 10:13:44;;;;;;;12.05;7.50;;;28.40;40.80;;;;;;5025182;28;20384;-69
2022/03/02 10:16:51;;;;;;;7.10;5.20;;;28.80;42.00;;;;;;5025258;28;20052;-69
2022/03/02 10:20:00;;;;;;;7.30;4.70;;;31.10;41.00;;;;;;5028138;28;20059;-67
2022/03/02 10:23:22;;;;;;;11.57;4.90;;;33.10;39.60;;;;;;5027974;28;20483;-67
2022/03/02 10:26:31;;;;;;;5.53;4.60;;;33.60;38.80;;;;;;5029636;28;20472;-67
2022/03/02 10:30:17;;;;;;;9.82;6.47;;;34.80;37.60;;;;;;5017138;28;20052;-67
2022/03/02 10:33:24;;;;;;;7.72;5.47;;;35.30;37.30;;;;;;5022024;28;20036;-67
2022/03/02 10:36:29;;;;;;;12.25;8.75;;;32.80;36.20;;;;;;5027666;28;20052;-66
2022/03/02 10:40:06;;;;;;;14.88;8.70;;;27.60;36.60;;;;;;5026075;28;20052;-69
2022/03/02 10:43:16;;;;;;;15.45;10.82;;;27.30;36.90;;;;;;5020282;28;20318;-69
2022/03/02 10:46:22;;;;;;;13.65;9.55;;;25.90;40.00;;;;;;5025444;28;20052;-69
2022/03/02 10:49:28;;;;;;;14.00;9.15;;;27.50;39.80;;;;;;5024710;28;20504;-68
2022/03/02 10:52:36;;;;;;;13.10;9.10;;;23.30;39.10;;;;;;5024994;28;20040;-69
2022/03/02 10:55:47;;;;;;;9.60;7.20;;;24.40;40.60;;;;;;5028648;28;20487;-67
2022/03/02 10:58:51;;;;;;;7.72;6.50;;;27.50;39.70;;;;;;5025460;28;20044;-67
2022/03/02 11:01:56;;;;;;;6.43;5.30;;;29.00;37.80;;;;;;5025140;28;20048;-67
2022/03/02 11:05:02;;;;;;;7.90;5.88;;;28.70;38.60;;;;;;5027207;28;20040;-67
2022/03/02 11:08:06;;;;;;;7.57;6.45;;;30.70;38.60;;;;;;5022057;28;20041;-67
2022/03/02 11:11:11;;;;;;;7.75;6.03;;;32.10;38.20;;;;;;5024681;28;20396;-67
2022/03/02 11:14:15;;;;;;;7.00;5.95;;;32.80;37.40;;;;;;5025023;28;20403;-67
2022/03/02 11:17:19;;;;;;;6.35;5.18;;;33.30;37.80;;;;;;5024840;28;20072;-67
2022/03/02 11:20:25;;;;;;;5.32;4.82;;;34.80;36.60;;;;;;5026534;28;20045;-68
2022/03/02 11:23:44;;;;;;;6.25;4.95;;;35.40;35.30;;;;;;5031171;28;20044;-68
2022/03/02 11:26:49;;;;;;;6.47;5.35;;;35.00;35.70;;;;;;5031566;28;20038;-67
2022/03/02 11:30:17;;;;;;;7.93;5.18;;;33.80;35.30;;;;;;5030217;28;20400;-67
2022/03/02 11:33:26;;;;;;;6.00;5.30;;;34.00;34.10;;;;;;5027237;28;20048;-67
2022/03/02 11:36:34;;;;;;;5.97;5.18;;;33.20;35.40;;;;;;5030227;28;20057;-68
2022/03/02 11:39:43;;;;;;;5.55;4.95;;;34.00;35.80;;;;;;5032172;28;20487;-68
2022/03/02 11:42:47;;;;;;;5.05;4.55;;;34.50;35.10;;;;;;5030336;28;20048;-68
2022/03/02 11:45:57;;;;;;;5.85;4.63;;;35.10;34.90;;;;;;5025334;28;20045;-67
2022/03/02 11:49:04;;;;;;;;;;;31.40;31.80;;;;;;5027442;28;20041;-68
2022/03/02 11:52:14;;;;;;;5.40;4.07;;;30.20;34.40;;;;;;5028732;28;19909;-68
2022/03/02 11:55:18;;;;;;;6.15;4.40;;;32.10;34.10;;;;;;5032532;28;20063;-68
2022/03/02 11:58:22;;;;;;;6.93;4.03;;;33.90;35.00;;;;;;5016585;28;20033;-67
2022/03/02 12:01:47;;;;;;;5.20;4.20;;;34.70;33.70;;;;;;5027475;28;20040;-68
2022/03/02 12:05:03;;;;;;;5.20;4.47;;;35.30;33.70;;;;;;5025272;28;20056;-68
2022/03/02 12:08:13;;;;;;;4.88;4.38;;;35.20;33.70;;;;;;5026429;28;20507;-67
2022/03/02 12:11:24;;;;;;;5.85;3.55;;;34.60;34.10;;;;;;5028897;28;20428;-68
2022/03/02 12:14:37;;;;;;;4.68;4.18;;;32.10;30.40;;;;;;5029715;28;20056;-67
2022/03/02 12:17:41;;;;;;;6.32;4.25;;;30.50;31.00;;;;;;5023172;28;20061;-67
2022/03/02 12:20:54;;;;;;;5.07;3.85;;;30.60;33.00;;;;;;5025155;28;20057;-69
2022/03/02 12:24:00;;;;;;;5.28;3.65;;;31.90;33.80;;;;;;5030835;28;20044;-67
2022/03/02 12:27:11;;;;;;;5.63;4.65;;;29.90;31.40;;;;;;5026124;28;20381;-67
2022/03/02 12:30:18;;;;;;;4.53;3.85;;;26.80;33.50;;;;;;5027699;28;20040;-67
2022/03/02 12:33:23;;;;;;;6.03;5.03;;;27.10;33.10;;;;;;5029533;28;20488;-67
2022/03/02 12:36:28;;;;;;;4.65;4.15;;;27.40;33.00;;;;;;5031311;28;20053;-67
2022/03/02 12:39:33;;;;;;;5.57;3.95;;;29.20;33.70;;;;;;5031744;28;20039;-67
2022/03/02 12:42:47;;;;;;;4.50;3.90;;;28.30;32.90;;;;;;5026677;28;20052;-67
2022/03/02 12:45:52;;;;;;;5.65;4.30;;;28.60;32.50;;;;;;5025708;28;20040;-67
2022/03/02 12:48:57;;;;;;;6.13;4.38;;;29.70;32.50;;;;;;5025568;28;20045;-68
2022/03/02 12:52:03;;;;;;;5.78;4.78;;;27.90;33.30;;;;;;5022015;28;20044;-67
2022/03/02 12:55:09;;;;;;;5.93;4.78;;;28.30;32.90;;;;;;5025243;28;20044;-68
2022/03/02 12:58:14;;;;;;;6.15;4.93;;;26.30;34.10;;;;;;5026158;28;20116;-67
2022/03/02 13:01:18;;;;;;;7.82;4.13;;;28.30;34.90;;;;;;5028427;28;20044;-68
2022/03/02 13:04:41;;;;;;;5.70;4.28;;;30.20;34.10;;;;;;5026308;28;20045;-68
2022/03/02 13:08:04;;;;;;;7.80;4.38;;;31.10;34.80;;;;;;5024291;28;20043;-67
2022/03/02 13:11:23;;;;;;;7.28;3.97;;;28.50;31.90;;;;;;5020661;28;20041;-67
2022/03/02 13:14:35;;;;;;;5.57;4.40;;;27.30;34.90;;;;;;5030251;28;20487;-67
2022/03/02 13:17:39;;;;;;;5.97;4.57;;;26.80;35.40;;;;;;5027133;28;20052;-69
2022/03/02 13:20:49;;;;;;;6.43;4.10;;;24.60;35.10;;;;;;5027099;28;20049;-69
2022/03/02 13:24:10;;;;;;;5.35;4.30;;;26.10;35.80;;;;;;5026188;28;20040;-67
2022/03/02 13:27:16;;;;;;;13.13;3.97;;;27.60;33.80;;;;;;5043505;28;20060;-67
2022/03/02 13:30:21;;;;;;;6.10;4.38;;;26.50;36.00;;;;;;5031576;28;20392;-67
2022/03/02 13:33:26;;;;;;;6.60;4.38;;;28.10;34.20;;;;;;5031374;28;20641;-68
2022/03/02 13:36:45;;;;;;;5.70;4.50;;;27.40;33.50;;;;;;5022971;28;20323;-68
2022/03/02 13:39:49;;;;;;;6.22;4.30;;;23.40;32.90;;;;;;5024236;28;20507;-70
2022/03/02 13:42:55;;;;;;;5.35;4.30;;;24.10;35.20;;;;;;5028900;28;20052;-69
2022/03/02 13:46:15;;;;;;;9.43;4.32;;;25.60;34.40;;;;;;5026890;28;20057;-67
2022/03/02 13:49:19;;;;;;;6.57;4.50;;;27.40;35.50;;;;;;5029043;28;20040;-67
2022/03/02 13:52:26;;;;;;;5.43;3.53;;;28.60;35.40;;;;;;5028453;28;20040;-67
2022/03/02 13:55:32;;;;;;;5.90;3.83;;;28.70;35.00;;;;;;5019478;28;20107;-68
2022/03/02 13:58:44;;;;;;;5.75;3.90;;;29.70;34.30;;;;;;5028127;28;20507;-67
2022/03/02 14:01:50;;;;;;;4.57;4.07;;;27.50;33.10;;;;;;5024706;28;20060;-68
2022/03/02 14:04:54;;;;;;;5.35;3.75;;;24.80;33.20;;;;;;5006527;28;20044;-68
2022/03/02 14:08:06;;;;;;;6.55;3.72;;;25.50;35.40;;;;;;5026317;28;20040;-69
2022/03/02 14:11:36;;;;;;;4.43;3.78;;;27.00;35.10;;;;;;5023786;28;20060;-70
2022/03/02 14:14:40;;;;;;;4.95;4.07;;;28.50;34.10;;;;;;5026594;28;20041;-69
2022/03/02 14:17:45;;;;;;;5.40;3.75;;;29.20;34.10;;;;;;5022603;28;20060;-69
2022/03/02 14:20:49;;;;;;;4.78;4.07;;;29.50;34.50;;;;;;5027088;28;20471;-69
2022/03/02 14:23:53;;;;;;;4.38;3.58;;;28.80;34.60;;;;;;5028565;28;20048;-69
2022/03/02 14:27:09;;;;;;;4.65;3.55;;;28.30;34.50;;;;;;5030531;28;20519;-69
2022/03/02 14:30:16;;;;;;;4.68;3.45;;;27.60;35.20;;;;;;5030690;28;20388;-69
2022/03/02 14:33:22;;;;;;;7.35;3.55;;;27.70;34.80;;;;;;5028921;28;20056;-68
2022/03/02 14:36:26;;;;;;;6.13;4.20;;;26.40;35.60;;;;;;5027059;28;20033;-68
2022/03/02 14:39:30;;;;;;;6.10;4.35;;;25.30;35.80;;;;;;5030628;28;20052;-68
2022/03/02 14:42:38;;;;;;;5.10;4.50;;;25.10;35.70;;;;;;5029959;28;20491;-69
2022/03/02 14:45:44;;;;;;;7.00;4.72;;;25.30;36.10;;;;;;5019828;28;20049;-68
2022/03/02 14:48:58;;;;;;;6.32;4.47;;;25.30;36.30;;;;;;5029198;28;20492;-68
2022/03/02 14:52:02;;;;;;;6.32;4.10;;;25.30;36.70;;;;;;5026920;28;20052;-69
2022/03/02 14:55:07;;;;;;;5.65;4.63;;;25.30;36.20;;;;;;5032172;28;20048;-69
2022/03/02 14:58:36;;;;;;;10.05;4.40;;;24.80;36.10;;;;;;5033950;28;20377;-68
2022/03/02 15:01:40;;;;;;;7.95;5.15;;;23.80;37.00;;;;;;5028817;28;20037;-69
2022/03/02 15:05:14;;;;;;;6.50;4.82;;;22.80;38.00;;;;;;5031631;28;20040;-68
2022/03/02 15:08:18;;;;;;;6.25;4.05;;;22.10;38.60;;;;;;5030008;28;20377;-68
2022/03/02 15:11:29;;;;;;;8.25;4.55;;;22.00;38.20;;;;;;5020183;28;20045;-68
2022/03/02 15:17:57;;;;;;;5.35;4.00;;;20.90;38.70;;;;;;5031560;28;20056;-68
2022/03/02 15:21:00;;;;;;;7.60;4.70;;;20.70;39.20;;;;;;5035581;28;20041;-69
2022/03/02 15:24:05;;;;;;;6.97;4.88;;;20.30;39.30;;;;;;5029630;28;20036;-68
2022/03/02 15:27:17;;;;;;;6.65;4.72;;;20.00;39.10;;;;;;5030741;28;20487;-69
2022/03/02 15:30:21;;;;;;;11.05;5.60;;;19.50;39.30;;;;;;5016129;28;20081;-69
2022/03/02 15:33:29;;;;;;;7.82;5.53;;;19.10;40.60;;;;;;5032432;28;20029;-68
2022/03/02 15:36:48;;;;;;;8.52;5.47;;;18.70;40.50;;;;;;5032332;28;20048;-69
2022/03/02 15:40:06;;;;;;;9.05;6.10;;;18.10;41.70;;;;;;5019193;28;20052;-69
2022/03/02 15:43:15;;;;;;;10.18;6.60;;;17.80;42.60;;;;;;5033437;28;20052;-69
2022/03/02 15:46:21;;;;;;;16.60;7.22;;;17.40;42.90;;;;;;5033645;28;20041;-68
2022/03/02 15:49:46;;;;;;;12.10;6.95;;;17.00;44.00;;;;;;5032651;28;20052;-68
2022/03/02 15:53:02;;;;;;;14.48;8.77;;;16.70;45.20;;;;;;5030739;28;20036;-69
2022/03/02 15:56:10;;;;;;;9.70;7.13;;;16.40;45.50;;;;;;5020184;28;20523;-68
2022/03/02 15:59:21;;;;;;;10.90;6.57;;;16.10;46.00;;;;;;5032491;28;20048;-69
2022/03/02 16:02:33;;;;;;;10.10;6.93;;;16.10;47.00;;;;;;5032054;28;20044;-69
2022/03/02 16:05:44;;;;;;;11.63;7.40;;;16.10;47.10;;;;;;5032125;28;20040;-68
2022/03/02 16:08:48;;;;;;;12.18;7.90;;;15.90;47.30;;;;;;5030159;28;20040;-68